createdAt,value
2022-07-27T00:01:50.675Z,18.09
2022-07-27T00:04:38.156Z,18.13
2022-07-27T00:07:24.748Z,18.28
2022-07-27T00:10:10.862Z,18.03
2022-07-27T00:12:57.463Z,18.19
2022-07-27T00:15:43.848Z,18.29
2022-07-27T00:18:30.156Z,18.02
2022-07-27T00:21:16.443Z,17.94
2022-07-27T00:24:03.074Z,18.21
2022-07-27T00:26:49.213Z,18.21
2022-07-27T00:29:35.855Z,18.43
2022-07-27T00:32:22.279Z,18.47
2022-07-27T00:35:09.372Z,18.27
2022-07-27T00:37:55.829Z,18.41
2022-07-27T00:40:42.595Z,18.39
2022-07-27T00:43:28.749Z,18.28
2022-07-27T00:46:15.335Z,18.15
2022-07-27T00:49:02.084Z,18.07
2022-07-27T00:51:50.230Z,18.20
2022-07-27T00:54:36.611Z,17.93
2022-07-27T00:57:23.703Z,17.91
2022-07-27T01:00:10.566Z,17.91
2022-07-27T01:02:57.610Z,17.95
2022-07-27T01:05:44.612Z,17.81
2022-07-27T01:08:30.965Z,17.86
2022-07-27T01:11:17.362Z,17.86
2022-07-27T01:14:03.758Z,17.73
2022-07-27T01:16:51.801Z,18.03
2022-07-27T01:19:38.467Z,17.90
2022-07-27T01:22:25.604Z,17.89
2022-07-27T01:25:12.499Z,17.85
2022-07-27T01:27:59.007Z,17.85
2022-07-27T01:30:45.713Z,17.78
2022-07-27T01:33:32.177Z,17.58
2022-07-27T01:36:18.874Z,17.73
2022-07-27T01:39:05.190Z,17.66
2022-07-27T01:41:51.387Z,17.57
2022-07-27T01:44:37.493Z,17.52
2022-07-27T01:47:27.041Z,17.38
2022-07-27T01:50:13.447Z,17.26
2022-07-27T01:52:59.748Z,17.30
2022-07-27T01:55:46.261Z,17.38
2022-07-27T01:58:32.615Z,17.27
2022-07-27T02:01:18.914Z,17.15
2022-07-27T02:04:05.553Z,17.32
2022-07-27T02:06:52.000Z,17.24
2022-07-27T02:09:38.460Z,17.12
2022-07-27T02:12:36.825Z,17.21
2022-07-27T02:15:26.231Z,17.05
2022-07-27T02:18:29.447Z,17.11
2022-07-27T02:21:20.450Z,17.06
2022-07-27T02:24:07.015Z,17.28
2022-07-27T02:26:53.666Z,17.10
2022-07-27T02:29:40.039Z,17.03
2022-07-27T02:32:26.661Z,16.87
2022-07-27T02:35:18.558Z,17.26
2022-07-27T02:38:06.289Z,17.21
2022-07-27T02:40:52.568Z,17.12
2022-07-27T02:43:38.904Z,16.85
2022-07-27T02:46:25.423Z,16.96
2022-07-27T02:49:12.547Z,16.93
2022-07-27T02:51:59.561Z,17.01
2022-07-27T02:54:45.764Z,17.12
2022-07-27T02:57:34.354Z,17.03
2022-07-27T03:00:22.199Z,16.86
2022-07-27T03:03:08.540Z,16.97
2022-07-27T03:05:54.775Z,16.86
2022-07-27T03:08:42.088Z,16.98
2022-07-27T03:11:28.684Z,16.96
2022-07-27T03:14:15.224Z,16.83
2022-07-27T03:17:01.726Z,16.69
2022-07-27T03:19:49.694Z,17.00
2022-07-27T03:22:35.921Z,16.86
2022-07-27T03:25:22.903Z,16.98
2022-07-27T03:28:09.443Z,16.81
2022-07-27T03:30:55.930Z,16.90
2022-07-27T03:33:42.640Z,16.67
2022-07-27T03:36:28.950Z,16.97
2022-07-27T03:39:17.094Z,17.01
2022-07-27T03:42:03.986Z,16.92
2022-07-27T03:44:51.913Z,17.01
2022-07-27T03:47:38.437Z,17.01
2022-07-27T03:50:24.961Z,17.08
2022-07-27T03:53:11.991Z,16.62
2022-07-27T03:55:58.365Z,16.95
2022-07-27T03:58:46.140Z,16.94
2022-07-27T04:01:32.468Z,16.92
2022-07-27T04:04:19.020Z,16.83
2022-07-27T04:07:05.279Z,16.72
2022-07-27T04:09:51.693Z,16.76
2022-07-27T04:12:39.446Z,16.82
2022-07-27T04:15:26.324Z,16.88
2022-07-27T04:18:12.679Z,16.89
2022-07-27T04:21:01.870Z,17.02
2022-07-27T04:23:48.423Z,16.87
2022-07-27T04:26:34.910Z,17.02
2022-07-27T04:29:21.995Z,17.00
2022-07-27T04:32:08.716Z,16.95
2022-07-27T04:34:55.232Z,16.92
2022-07-27T04:37:41.797Z,17.07
2022-07-27T04:40:45.696Z,17.33
2022-07-27T04:43:32.176Z,17.12
2022-07-27T04:46:18.485Z,17.38
2022-07-27T04:49:05.418Z,17.42
2022-07-27T04:51:51.687Z,17.41
2022-07-27T04:54:37.928Z,17.39
2022-07-27T04:57:24.515Z,17.49
2022-07-27T05:00:11.344Z,17.50
2022-07-27T05:02:57.695Z,17.50
2022-07-27T05:05:49.822Z,17.44
2022-07-27T05:08:36.943Z,17.58
2022-07-27T05:11:23.175Z,17.51
2022-07-27T05:14:09.572Z,17.76
2022-07-27T05:16:56.239Z,17.77
2022-07-27T05:19:42.481Z,17.67
2022-07-27T05:22:28.794Z,17.76
2022-07-27T05:25:14.988Z,17.87
2022-07-27T05:28:01.546Z,18.06
2022-07-27T05:30:47.993Z,17.93
2022-07-27T05:33:34.680Z,18.01
2022-07-27T05:36:21.060Z,18.20
2022-07-27T05:39:13.272Z,18.41
2022-07-27T05:42:00.386Z,18.57
2022-07-27T05:44:46.973Z,18.60
2022-07-27T05:47:33.334Z,18.72
2022-07-27T05:50:19.622Z,18.78
2022-07-27T05:53:06.184Z,18.75
2022-07-27T05:55:58.524Z,18.71
2022-07-27T05:58:45.939Z,18.91
2022-07-27T06:01:32.280Z,18.79
2022-07-27T06:04:18.895Z,18.46
2022-07-27T06:07:23.926Z,18.61
2022-07-27T06:10:11.586Z,18.92
2022-07-27T06:12:58.390Z,18.84
2022-07-27T06:15:44.593Z,19.05
2022-07-27T06:18:31.094Z,18.78
2022-07-27T06:21:17.643Z,19.02
2022-07-27T06:24:04.062Z,19.03
2022-07-27T06:26:50.515Z,19.08
2022-07-27T06:29:37.195Z,19.26
2022-07-27T06:32:23.392Z,19.18
2022-07-27T06:35:12.610Z,19.41
2022-07-27T06:37:59.000Z,19.10
2022-07-27T06:40:45.464Z,19.38
2022-07-27T06:43:32.879Z,19.24
2022-07-27T06:46:19.112Z,19.12
2022-07-27T06:49:05.647Z,19.04
2022-07-27T06:51:53.161Z,19.08
2022-07-27T06:54:39.800Z,18.79
2022-07-27T06:57:26.267Z,19.02
2022-07-27T07:00:13.378Z,19.32
2022-07-27T07:03:05.485Z,19.41
2022-07-27T07:05:52.156Z,19.45
2022-07-27T07:08:38.336Z,19.45
2022-07-27T07:11:24.996Z,19.73
2022-07-27T07:14:11.613Z,19.78
2022-07-27T07:16:57.976Z,19.84
2022-07-27T07:19:44.206Z,20.12
2022-07-27T07:22:30.481Z,19.94
2022-07-27T07:25:16.904Z,20.17
2022-07-27T07:28:04.611Z,19.90
2022-07-27T07:30:51.362Z,19.85
2022-07-27T07:33:37.837Z,20.04
2022-07-27T07:36:24.538Z,19.95
2022-07-27T07:39:11.327Z,20.01
2022-07-27T07:41:58.208Z,20.41
2022-07-27T07:44:44.398Z,20.80
2022-07-27T07:47:30.736Z,20.97
2022-07-27T07:50:18.235Z,20.97
2022-07-27T07:53:04.939Z,20.34
2022-07-27T07:55:56.583Z,20.79
2022-07-27T07:58:43.227Z,20.20
2022-07-27T08:01:29.659Z,20.08
2022-07-27T08:04:16.286Z,20.81
2022-07-27T08:07:06.109Z,20.88
2022-07-27T08:09:52.290Z,20.57
2022-07-27T08:12:42.439Z,19.97
2022-07-27T08:15:35.039Z,20.30
2022-07-27T08:18:22.294Z,20.05
2022-07-27T08:21:08.847Z,19.76
2022-07-27T08:23:55.309Z,19.71
2022-07-27T08:26:45.052Z,19.96
2022-07-27T08:29:36.772Z,20.12
2022-07-27T08:32:25.183Z,19.70
2022-07-27T08:35:20.051Z,20.17
2022-07-27T08:38:09.310Z,20.50
2022-07-27T08:40:56.232Z,20.71
2022-07-27T08:43:45.578Z,20.84
2022-07-27T08:46:32.985Z,21.06
2022-07-27T08:49:20.042Z,21.05
2022-07-27T08:52:08.048Z,21.00
2022-07-27T08:54:54.882Z,21.31
2022-07-27T08:57:41.051Z,21.46
2022-07-27T09:00:27.962Z,21.62
2022-07-27T09:03:20.014Z,21.53
2022-07-27T09:06:06.990Z,21.50
2022-07-27T09:09:00.472Z,21.82
2022-07-27T09:12:05.638Z,21.71
2022-07-27T09:14:53.327Z,22.05
2022-07-27T09:17:48.424Z,22.19
2022-07-27T09:20:35.766Z,21.91
2022-07-27T09:23:28.189Z,22.38
2022-07-27T09:26:30.371Z,22.48
2022-07-27T09:29:18.031Z,22.29
2022-07-27T09:32:15.823Z,22.43
2022-07-27T09:35:20.826Z,22.53
2022-07-27T09:38:20.464Z,23.04
2022-07-27T09:41:07.252Z,23.16
2022-07-27T09:47:21.765Z,23.82
2022-07-27T09:50:23.832Z,23.84
2022-07-27T09:53:41.789Z,23.48
2022-07-27T09:56:32.477Z,23.69
2022-07-27T09:59:19.587Z,23.86
2022-07-27T10:02:06.338Z,23.80
2022-07-27T10:04:53.144Z,24.10
2022-07-27T10:07:40.084Z,24.23
2022-07-27T10:10:26.792Z,24.19
2022-07-27T10:13:13.294Z,24.39
2022-07-27T10:16:01.158Z,24.82
2022-07-27T10:19:12.571Z,24.87
2022-07-27T10:21:58.753Z,24.86
2022-07-27T10:24:58.642Z,24.48
2022-07-27T10:28:07.508Z,23.64
2022-07-27T10:31:18.419Z,23.93
2022-07-27T10:34:06.600Z,23.87
2022-07-27T10:36:54.060Z,23.81
2022-07-27T10:39:43.465Z,23.68
2022-07-27T10:42:30.819Z,23.39
2022-07-27T10:45:18.406Z,23.42
2022-07-27T10:48:04.802Z,23.20
2022-07-27T10:50:51.253Z,23.09
2022-07-27T10:54:09.764Z,23.37
2022-07-27T10:56:50.813Z,23.94
2022-07-27T11:00:06.814Z,24.35
2022-07-27T11:02:47.102Z,24.17
2022-07-27T11:05:59.002Z,23.97
2022-07-27T11:08:47.464Z,23.84
2022-07-27T11:11:37.535Z,24.12
2022-07-27T11:14:29.488Z,24.21
2022-07-27T11:17:52.408Z,24.29
2022-07-27T11:20:31.633Z,23.58
2022-07-27T11:23:50.543Z,24.00
2022-07-27T11:26:29.854Z,24.14
2022-07-27T11:29:17.929Z,24.55
2022-07-27T11:32:04.648Z,24.76
2022-07-27T11:34:51.324Z,24.85
2022-07-27T11:37:37.636Z,24.45
2022-07-27T11:41:07.061Z,23.89
2022-07-27T11:43:48.822Z,23.49
2022-07-27T11:46:42.473Z,23.38
2022-07-27T11:49:31.165Z,23.40
2022-07-27T11:52:18.478Z,23.49
2022-07-27T11:55:05.199Z,23.75
2022-07-27T11:57:53.439Z,23.90
2022-07-27T12:00:44.391Z,23.83
2022-07-27T12:03:45.996Z,24.03
2022-07-27T12:06:35.770Z,24.08
2022-07-27T12:09:23.106Z,24.67
2022-07-27T12:12:16.460Z,24.90
2022-07-27T12:15:45.788Z,24.92
2022-07-27T12:18:26.523Z,24.92
2022-07-27T12:21:19.433Z,24.82
2022-07-27T12:24:06.063Z,24.51
2022-07-27T12:27:26.208Z,24.40
2022-07-27T12:30:14.083Z,24.58
2022-07-27T12:33:01.658Z,24.48
2022-07-27T12:35:48.039Z,24.16
2022-07-27T12:38:44.891Z,23.82
2022-07-27T12:41:36.546Z,23.86
2022-07-27T12:44:35.039Z,23.61
2022-07-27T12:47:40.117Z,23.62
2022-07-27T12:50:29.668Z,23.97
2022-07-27T12:53:17.015Z,24.02
2022-07-27T12:56:08.258Z,24.25
2022-07-27T12:58:59.424Z,24.52
2022-07-27T13:01:45.886Z,24.50
2022-07-27T13:04:32.458Z,24.08
2022-07-27T13:07:19.027Z,24.15
2022-07-27T13:10:08.355Z,23.89
2022-07-27T13:12:54.818Z,24.09
2022-07-27T13:15:41.194Z,23.82
2022-07-27T13:18:27.516Z,23.71
2022-07-27T13:21:14.105Z,24.11
2022-07-27T13:24:02.747Z,24.22
2022-07-27T13:26:49.488Z,24.16
2022-07-27T13:29:36.035Z,24.03
2022-07-27T13:32:23.147Z,24.13
2022-07-27T13:35:14.384Z,24.37
2022-07-27T13:38:00.601Z,24.69
2022-07-27T13:40:47.998Z,25.29
2022-07-27T13:43:34.551Z,26.07
2022-07-27T13:46:21.202Z,26.18
2022-07-27T13:49:07.566Z,26.28
2022-07-27T13:51:54.719Z,26.06
2022-07-27T13:54:41.844Z,26.05
2022-07-27T13:57:28.292Z,25.59
2022-07-27T14:00:16.046Z,25.27
2022-07-27T14:03:02.510Z,25.18
2022-07-27T14:05:49.930Z,24.89
2022-07-27T14:08:37.012Z,24.57
2022-07-27T14:11:23.314Z,24.22
2022-07-27T14:14:09.739Z,24.06
2022-07-27T14:16:55.960Z,23.83
2022-07-27T14:19:42.304Z,24.00
2022-07-27T14:22:28.582Z,24.16
2022-07-27T14:25:14.887Z,24.34
2022-07-27T14:28:01.335Z,24.69
2022-07-27T14:30:48.215Z,24.86
2022-07-27T14:33:36.489Z,24.73
2022-07-27T14:36:23.625Z,24.72
2022-07-27T14:39:10.747Z,24.68
2022-07-27T14:41:57.897Z,24.98
2022-07-27T14:44:47.751Z,25.07
2022-07-27T14:47:34.401Z,25.04
2022-07-27T14:50:20.623Z,25.13
2022-07-27T14:53:06.855Z,25.10
2022-07-27T14:55:53.678Z,25.06
2022-07-27T14:58:40.241Z,24.87
2022-07-27T15:01:27.073Z,24.63
2022-07-27T15:04:13.794Z,24.85
2022-07-27T15:07:00.873Z,24.63
2022-07-27T15:09:48.523Z,24.67
2022-07-27T15:12:37.923Z,24.68
2022-07-27T15:15:26.596Z,24.64
2022-07-27T15:18:13.054Z,24.18
2022-07-27T15:20:59.676Z,24.42
2022-07-27T15:23:46.194Z,24.34
2022-07-27T15:26:33.006Z,24.34
2022-07-27T15:29:19.286Z,24.39
2022-07-27T15:32:06.959Z,24.37
2022-07-27T15:34:53.516Z,24.28
2022-07-27T15:37:39.693Z,24.19
2022-07-27T15:40:38.393Z,24.22
2022-07-27T15:43:25.260Z,24.46
2022-07-27T15:46:11.754Z,24.25
2022-07-27T15:49:01.778Z,24.31
2022-07-27T15:51:48.431Z,24.27
2022-07-27T15:54:38.948Z,24.59
2022-07-27T15:57:28.804Z,24.11
2022-07-27T16:00:16.371Z,24.34
2022-07-27T16:03:04.483Z,23.95
2022-07-27T16:05:51.244Z,23.77
2022-07-27T16:08:37.554Z,23.69
2022-07-27T16:11:23.867Z,23.53
2022-07-27T16:14:10.354Z,23.54
2022-07-27T16:16:56.717Z,23.66
2022-07-27T16:19:43.277Z,23.45
2022-07-27T16:22:31.986Z,23.65
2022-07-27T16:25:18.482Z,23.65
2022-07-27T16:28:05.373Z,23.73
2022-07-27T16:30:51.945Z,23.88
2022-07-27T16:33:38.847Z,24.23
2022-07-27T16:36:25.815Z,24.02
2022-07-27T16:39:12.172Z,23.86
2022-07-27T16:41:58.755Z,23.75
2022-07-27T16:44:45.078Z,23.55
2022-07-27T16:47:31.174Z,23.66
2022-07-27T16:50:18.424Z,23.93
2022-07-27T16:53:04.998Z,23.88
2022-07-27T16:55:51.292Z,23.94
2022-07-27T16:58:38.528Z,23.69
2022-07-27T17:01:26.769Z,23.73
2022-07-27T17:04:13.634Z,23.46
2022-07-27T17:07:00.315Z,23.14
2022-07-27T17:09:46.537Z,23.26
2022-07-27T17:12:38.074Z,23.17
2022-07-27T17:15:25.715Z,23.19
2022-07-27T17:18:12.467Z,23.23
2022-07-27T17:20:58.955Z,22.98
2022-07-27T17:23:45.272Z,23.23
2022-07-27T17:26:31.831Z,23.24
2022-07-27T17:29:18.025Z,23.42
2022-07-27T17:32:04.305Z,23.35
2022-07-27T17:34:50.518Z,23.33
2022-07-27T17:38:03.486Z,23.22
2022-07-27T17:40:43.114Z,23.19
2022-07-27T17:43:29.309Z,23.41
2022-07-27T17:46:15.752Z,23.20
2022-07-27T17:49:02.467Z,23.20
2022-07-27T17:51:48.778Z,23.14
2022-07-27T17:54:35.612Z,23.16
2022-07-27T17:57:22.995Z,23.18
2022-07-27T18:00:10.944Z,23.03
2022-07-27T18:02:57.341Z,22.96
2022-07-27T18:05:44.349Z,22.89
2022-07-27T18:08:30.569Z,22.94
2022-07-27T18:11:16.776Z,22.77
2022-07-27T18:14:03.207Z,22.73
2022-07-27T18:16:49.602Z,22.79
2022-07-27T18:19:36.184Z,22.55
2022-07-27T18:22:22.557Z,22.44
2022-07-27T18:25:09.558Z,22.29
2022-07-27T18:27:55.876Z,22.46
2022-07-27T18:30:43.451Z,22.24
2022-07-27T18:33:36.301Z,22.09
2022-07-27T18:36:23.025Z,22.23
2022-07-27T18:39:09.378Z,22.02
2022-07-27T18:42:01.682Z,21.93
2022-07-27T18:44:48.123Z,22.02
2022-07-27T18:47:34.577Z,21.94
2022-07-27T18:50:21.255Z,21.82
2022-07-27T18:53:08.929Z,21.76
2022-07-27T18:55:56.648Z,21.68
2022-07-27T18:58:43.151Z,21.57
2022-07-27T19:01:29.822Z,21.55
2022-07-27T19:04:16.786Z,21.52
2022-07-27T19:07:06.274Z,21.55
2022-07-27T19:09:52.710Z,21.41
2022-07-27T19:12:38.959Z,21.36
2022-07-27T19:15:25.236Z,21.22
2022-07-27T19:18:11.916Z,21.29
2022-07-27T19:20:58.282Z,21.25
2022-07-27T19:23:44.904Z,21.29
2022-07-27T19:26:31.274Z,21.31
2022-07-27T19:29:19.758Z,21.22
2022-07-27T19:32:07.766Z,21.21
2022-07-27T19:34:54.259Z,21.27
2022-07-27T19:37:40.438Z,21.24
2022-07-27T19:40:43.989Z,21.21
2022-07-27T19:43:33.458Z,21.15
2022-07-27T19:46:19.740Z,21.17
2022-07-27T19:49:06.489Z,21.19
2022-07-27T19:51:53.018Z,21.12
2022-07-27T19:54:39.612Z,21.10
2022-07-27T19:57:26.467Z,21.10
2022-07-27T20:00:13.635Z,21.13
2022-07-27T20:02:59.845Z,20.89
2022-07-27T20:05:47.611Z,20.83
2022-07-27T20:08:34.853Z,20.72
2022-07-27T20:11:21.011Z,20.85
2022-07-27T20:14:07.387Z,20.79
2022-07-27T20:16:53.791Z,20.80
2022-07-27T20:19:40.364Z,20.61
2022-07-27T20:22:26.715Z,20.57
2022-07-27T20:25:14.864Z,20.46
2022-07-27T20:28:02.947Z,20.47
2022-07-27T20:30:49.425Z,20.23
2022-07-27T20:33:36.694Z,20.24
2022-07-27T20:36:23.313Z,20.17
2022-07-27T20:39:12.823Z,20.12
2022-07-27T20:42:03.800Z,20.15
2022-07-27T20:44:50.299Z,20.19
2022-07-27T20:47:38.367Z,20.27
2022-07-27T20:50:25.316Z,20.14
2022-07-27T20:53:11.950Z,20.05
2022-07-27T20:55:58.499Z,20.05
2022-07-27T20:58:44.831Z,19.86
2022-07-27T21:01:31.259Z,19.90
2022-07-27T21:04:19.055Z,19.93
2022-07-27T21:07:05.479Z,20.02
2022-07-27T21:09:51.963Z,19.94
2022-07-27T21:12:38.546Z,19.91
2022-07-27T21:15:34.106Z,20.00
2022-07-27T21:18:20.919Z,20.01
2022-07-27T21:21:07.144Z,19.99
2022-07-27T21:24:12.364Z,19.90
2022-07-27T21:27:04.178Z,19.77
2022-07-27T21:29:51.766Z,19.71
2022-07-27T21:32:38.171Z,19.44
2022-07-27T21:35:24.852Z,19.63
2022-07-27T21:38:11.170Z,19.57
2022-07-27T21:40:57.620Z,19.47
2022-07-27T21:43:44.493Z,19.43
2022-07-27T21:46:31.151Z,19.53
2022-07-27T21:49:17.607Z,19.53
2022-07-27T21:52:05.043Z,19.36
2022-07-27T21:54:51.961Z,19.26
2022-07-27T21:57:38.207Z,19.23
2022-07-27T22:00:25.669Z,19.54
2022-07-27T22:03:12.266Z,19.39
2022-07-27T22:05:58.287Z,19.25
2022-07-27T22:08:48.817Z,19.29
2022-07-27T22:11:35.398Z,19.01
2022-07-27T22:14:21.877Z,18.84
2022-07-27T22:17:08.096Z,18.75
2022-07-27T22:19:54.351Z,18.56
2022-07-27T22:22:40.523Z,18.34
2022-07-27T22:25:27.151Z,18.17
2022-07-27T22:28:13.441Z,18.19
2022-07-27T22:31:21.800Z,17.88
2022-07-27T22:34:06.317Z,18.01
2022-07-27T22:36:53.254Z,17.84
2022-07-27T22:39:39.782Z,17.63
2022-07-27T22:42:26.120Z,17.57
2022-07-27T22:45:12.422Z,17.67
2022-07-27T22:47:59.027Z,17.34
2022-07-27T22:50:45.529Z,17.45
2022-07-27T22:53:31.657Z,17.47
2022-07-27T22:56:18.078Z,17.18
2022-07-27T22:59:04.620Z,17.02
2022-07-27T23:01:50.988Z,17.22
2022-07-27T23:04:37.582Z,16.86
2022-07-27T23:07:24.595Z,16.94
2022-07-27T23:10:31.003Z,16.70
2022-07-27T23:13:19.095Z,16.94
2022-07-27T23:16:05.856Z,16.66
2022-07-27T23:18:52.043Z,16.79
2022-07-27T23:21:39.637Z,16.57
2022-07-27T23:24:28.856Z,16.70
2022-07-27T23:27:16.021Z,16.55
2022-07-27T23:30:02.618Z,16.69
2022-07-27T23:32:49.116Z,16.50
2022-07-27T23:35:35.683Z,16.15
2022-07-27T23:38:22.133Z,16.39
2022-07-27T23:41:08.826Z,16.49
2022-07-27T23:43:55.068Z,16.54
2022-07-27T23:46:41.217Z,16.45
2022-07-27T23:49:27.405Z,16.47
2022-07-27T23:52:13.759Z,16.37
2022-07-27T23:55:00.477Z,16.38
2022-07-27T23:57:47.140Z,16.14
